sensor_id;sensor_type;location;lat;lon;timestamp;pressure;altitude;pressure_sealevel;temperature;humidity
13209;BME280;6669;42.678;23.332;2024-01-30T00:01:35;96476.66;;;-0.66;100.00
13209;BME280;6669;42.678;23.332;2024-01-30T00:04:04;96481.91;;;-0.69;100.00
13209;BME280;6669;42.678;23.332;2024-01-30T00:06:33;96482.88;;;-0.73;100.00
13209;BME280;6669;42.678;23.332;2024-01-30T00:09:01;96482.28;;;-0.79;100.00
13209;BME280;6669;42.678;23.332;2024-01-30T00:11:31;96486.09;;;-0.68;100.00
13209;BME280;6669;42.678;23.332;2024-01-30T00:13:59;96486.28;;;-0.72;100.00
13209;BME280;6669;42.678;23.332;2024-01-30T00:16:27;96485.63;;;-0.77;100.00
13209;BME280;6669;42.678;23.332;2024-01-30T00:18:56;96487.16;;;-0.73;100.00
13209;BME280;6669;42.678;23.332;2024-01-30T00:21:25;96478.72;;;-0.75;100.00
13209;BME280;6669;42.678;23.332;2024-01-30T00:23:55;96488.84;;;-0.72;100.00
13209;BME280;6669;42.678;23.332;2024-01-30T00:26:23;96485.84;;;-0.84;100.00
13209;BME280;6669;42.678;23.332;2024-01-30T00:28:51;96490.84;;;-0.80;100.00
13209;BME280;6669;42.678;23.332;2024-01-30T00:31:19;96488.94;;;-0.75;100.00
13209;BME280;6669;42.678;23.332;2024-01-30T00:33:47;96493.50;;;-0.84;100.00
13209;BME280;6669;42.678;23.332;2024-01-30T00:36:16;96495.22;;;-0.84;100.00
13209;BME280;6669;42.678;23.332;2024-01-30T00:38:44;96485.06;;;-0.86;100.00
13209;BME280;6669;42.678;23.332;2024-01-30T00:41:14;96489.28;;;-0.85;100.00
13209;BME280;6669;42.678;23.332;2024-01-30T00:43:42;96491.00;;;-0.85;100.00
13209;BME280;6669;42.678;23.332;2024-01-30T00:46:10;96486.78;;;-0.86;100.00
13209;BME280;6669;42.678;23.332;2024-01-30T00:48:38;96488.69;;;-0.91;100.00
13209;BME280;6669;42.678;23.332;2024-01-30T00:51:07;96492.63;;;-0.83;100.00
13209;BME280;6669;42.678;23.332;2024-01-30T00:53:35;96490.88;;;-0.82;100.00
13209;BME280;6669;42.678;23.332;2024-01-30T00:56:04;96488.00;;;-0.96;100.00
13209;BME280;6669;42.678;23.332;2024-01-30T00:58:34;96489.69;;;-0.95;100.00
13209;BME280;6669;42.678;23.332;2024-01-30T01:01:02;96490.59;;;-0.98;100.00
13209;BME280;6669;42.678;23.332;2024-01-30T01:03:31;96494.00;;;-0.97;100.00
13209;BME280;6669;42.678;23.332;2024-01-30T01:05:59;96486.34;;;-0.97;100.00
13209;BME280;6669;42.678;23.332;2024-01-30T01:08:27;96492.47;;;-1.02;100.00
13209;BME280;6669;42.678;23.332;2024-01-30T01:10:55;96484.88;;;-1.05;100.00
13209;BME280;6669;42.678;23.332;2024-01-30T01:13:23;96489.13;;;-1.04;100.00
13209;BME280;6669;42.678;23.332;2024-01-30T01:15:53;96484.88;;;-1.05;100.00
13209;BME280;6669;42.678;23.332;2024-01-30T01:18:21;96491.06;;;-1.10;100.00
13209;BME280;6669;42.678;23.332;2024-01-30T01:20:50;96487.09;;;-1.19;100.00
13209;BME280;6669;42.678;23.332;2024-01-30T01:23:18;96490.69;;;-1.25;100.00
13209;BME280;6669;42.678;23.332;2024-01-30T01:25:46;96496.44;;;-1.18;100.00
13209;BME280;6669;42.678;23.332;2024-01-30T01:28:14;96495.50;;;-1.16;100.00
13209;BME280;6669;42.678;23.332;2024-01-30T01:30:42;96491.00;;;-1.09;100.00
13209;BME280;6669;42.678;23.332;2024-01-30T01:33:12;96490.94;;;-1.07;100.00
13209;BME280;6669;42.678;23.332;2024-01-30T01:35:41;96497.16;;;-1.14;100.00
13209;BME280;6669;42.678;23.332;2024-01-30T01:38:10;96491.34;;;-1.18;100.00
13209;BME280;6669;42.678;23.332;2024-01-30T01:40:38;96486.22;;;-1.18;100.00
13209;BME280;6669;42.678;23.332;2024-01-30T01:43:08;96492.88;;;-1.14;100.00
13209;BME280;6669;42.678;23.332;2024-01-30T01:45:36;96495.44;;;-1.14;100.00
13209;BME280;6669;42.678;23.332;2024-01-30T01:48:05;96490.59;;;-1.22;100.00
13209;BME280;6669;42.678;23.332;2024-01-30T01:50:36;96485.56;;;-1.23;100.00
13209;BME280;6669;42.678;23.332;2024-01-30T01:53:07;96482.34;;;-1.28;100.00
13209;BME280;6669;42.678;23.332;2024-01-30T01:55:38;96490.00;;;-1.28;100.00
13209;BME280;6669;42.678;23.332;2024-01-30T01:58:07;96490.00;;;-1.28;100.00
13209;BME280;6669;42.678;23.332;2024-01-30T02:00:36;96494.25;;;-1.29;100.00
13209;BME280;6669;42.678;23.332;2024-01-30T02:03:10;96499.34;;;-1.29;100.00
13209;BME280;6669;42.678;23.332;2024-01-30T02:05:41;96493.63;;;-1.36;100.00
13209;BME280;6669;42.678;23.332;2024-01-30T02:08:10;96499.28;;;-1.27;100.00
13209;BME280;6669;42.678;23.332;2024-01-30T02:10:38;96493.41;;;-1.29;100.00
13209;BME280;6669;42.678;23.332;2024-01-30T02:13:06;96501.00;;;-1.28;100.00
13209;BME280;6669;42.678;23.332;2024-01-30T02:15:35;96502.63;;;-1.25;100.00
13209;BME280;6669;42.678;23.332;2024-01-30T02:18:03;96498.47;;;-1.28;100.00
13209;BME280;6669;42.678;23.332;2024-01-30T02:20:31;96503.44;;;-1.25;100.00
13209;BME280;6669;42.678;23.332;2024-01-30T02:23:04;96500.75;;;-1.20;100.00
13209;BME280;6669;42.678;23.332;2024-01-30T02:25:33;96498.03;;;-1.16;100.00
13209;BME280;6669;42.678;23.332;2024-01-30T02:28:01;96502.09;;;-1.10;100.00
13209;BME280;6669;42.678;23.332;2024-01-30T02:30:30;96494.34;;;-1.07;100.00
13209;BME280;6669;42.678;23.332;2024-01-30T02:32:58;96499.31;;;-1.04;100.00
13209;BME280;6669;42.678;23.332;2024-01-30T02:35:26;96496.91;;;-1.08;100.00
13209;BME280;6669;42.678;23.332;2024-01-30T02:37:54;96493.88;;;-0.94;100.00
13209;BME280;6669;42.678;23.332;2024-01-30T02:40:24;96497.34;;;-0.95;100.00
13209;BME280;6669;42.678;23.332;2024-01-30T02:42:52;96492.28;;;-0.97;100.00
13209;BME280;6669;42.678;23.332;2024-01-30T02:45:22;96496.22;;;-0.88;100.00
13209;BME280;6669;42.678;23.332;2024-01-30T02:47:50;96499.38;;;-0.82;100.00
13209;BME280;6669;42.678;23.332;2024-01-30T02:50:19;96501.94;;;-0.82;100.00
13209;BME280;6669;42.678;23.332;2024-01-30T02:52:47;96499.44;;;-0.83;100.00
13209;BME280;6669;42.678;23.332;2024-01-30T02:55:16;96493.44;;;-0.82;100.00
13209;BME280;6669;42.678;23.332;2024-01-30T02:57:46;96490.09;;;-0.84;100.00
13209;BME280;6669;42.678;23.332;2024-01-30T03:00:15;96494.25;;;-0.82;100.00
13209;BME280;6669;42.678;23.332;2024-01-30T03:02:43;96498.50;;;-0.80;100.00
13209;BME280;6669;42.678;23.332;2024-01-30T03:05:11;96488.78;;;-0.71;100.00
13209;BME280;6669;42.678;23.332;2024-01-30T03:07:39;96491.34;;;-0.71;100.00
13209;BME280;6669;42.678;23.332;2024-01-30T03:10:08;96483.59;;;-0.69;100.00
13209;BME280;6669;42.678;23.332;2024-01-30T03:12:36;96488.00;;;-0.73;100.00
13209;BME280;6669;42.678;23.332;2024-01-30T03:15:06;96487.28;;;-0.76;100.00
13209;BME280;6669;42.678;23.332;2024-01-30T03:17:36;96487.78;;;-0.67;100.00
13209;BME280;6669;42.678;23.332;2024-01-30T03:20:06;96480.09;;;-0.67;100.00
13209;BME280;6669;42.678;23.332;2024-01-30T03:22:34;96490.44;;;-0.70;100.00
13209;BME280;6669;42.678;23.332;2024-01-30T03:25:03;96487.03;;;-0.70;100.00
13209;BME280;6669;42.678;23.332;2024-01-30T03:27:31;96486.81;;;-0.64;100.00
13209;BME280;6669;42.678;23.332;2024-01-30T03:29:59;96486.59;;;-0.82;100.00
13209;BME280;6669;42.678;23.332;2024-01-30T03:32:29;96482.84;;;-0.71;100.00
13209;BME280;6669;42.678;23.332;2024-01-30T03:34:57;96468.69;;;-0.80;100.00
13209;BME280;6669;42.678;23.332;2024-01-30T03:37:26;96477.78;;;-0.73;100.00
13209;BME280;6669;42.678;23.332;2024-01-30T03:39:54;96480.91;;;-0.64;100.00
13209;BME280;6669;42.678;23.332;2024-01-30T03:42:22;96476.72;;;-0.67;100.00
13209;BME280;6669;42.678;23.332;2024-01-30T03:44:51;96475.84;;;-0.66;100.00
13209;BME280;6669;42.678;23.332;2024-01-30T03:47:21;96472.44;;;-0.67;100.00
13209;BME280;6669;42.678;23.332;2024-01-30T03:49:50;96475.00;;;-0.67;100.00
13209;BME280;6669;42.678;23.332;2024-01-30T03:52:19;96467.41;;;-0.68;100.00
13209;BME280;6669;42.678;23.332;2024-01-30T03:54:47;96470.75;;;-0.66;100.00
13209;BME280;6669;42.678;23.332;2024-01-30T03:57:15;96474.72;;;-0.59;100.00
13209;BME280;6669;42.678;23.332;2024-01-30T03:59:44;96472.34;;;-0.63;100.00
13209;BME280;6669;42.678;23.332;2024-01-30T04:02:12;96467.28;;;-0.65;100.00
13209;BME280;6669;42.678;23.332;2024-01-30T04:04:40;96469.88;;;-0.67;100.00
13209;BME280;6669;42.678;23.332;2024-01-30T04:07:11;96474.06;;;-0.64;100.00
13209;BME280;6669;42.678;23.332;2024-01-30T04:09:39;96464.97;;;-0.71;100.00
13209;BME280;6669;42.678;23.332;2024-01-30T04:12:07;96460.63;;;-0.69;100.00
13209;BME280;6669;42.678;23.332;2024-01-30T04:14:38;96463.13;;;-0.68;100.00
13209;BME280;6669;42.678;23.332;2024-01-30T04:17:07;96467.28;;;-0.65;100.00
13209;BME280;6669;42.678;23.332;2024-01-30T04:19:37;96467.34;;;-0.67;100.00
13209;BME280;6669;42.678;23.332;2024-01-30T04:22:06;96476.00;;;-0.71;100.00
13209;BME280;6669;42.678;23.332;2024-01-30T04:24:36;96466.91;;;-0.78;100.00
13209;BME280;6669;42.678;23.332;2024-01-30T04:27:04;96469.41;;;-0.76;100.00
13209;BME280;6669;42.678;23.332;2024-01-30T04:29:32;96470.34;;;-0.79;100.00
13209;BME280;6669;42.678;23.332;2024-01-30T04:32:00;96472.88;;;-0.77;100.00
13209;BME280;6669;42.678;23.332;2024-01-30T04:34:29;96479.78;;;-0.81;100.00
13209;BME280;6669;42.678;23.332;2024-01-30T04:36:57;96481.50;;;-0.82;100.00
13209;BME280;6669;42.678;23.332;2024-01-30T04:39:25;96475.72;;;-0.87;100.00
13209;BME280;6669;42.678;23.332;2024-01-30T04:41:55;96479.78;;;-0.81;100.00
13209;BME280;6669;42.678;23.332;2024-01-30T04:44:23;96474.84;;;-0.86;100.00
13209;BME280;6669;42.678;23.332;2024-01-30T04:46:51;96483.56;;;-0.91;100.00
13209;BME280;6669;42.678;23.332;2024-01-30T04:49:19;96486.50;;;-1.02;100.00
13209;BME280;6669;42.678;23.332;2024-01-30T04:51:49;96496.66;;;-1.01;100.00
13209;BME280;6669;42.678;23.332;2024-01-30T04:54:17;96496.72;;;-1.02;100.00
13209;BME280;6669;42.678;23.332;2024-01-30T04:56:45;96498.44;;;-1.03;100.00
13209;BME280;6669;42.678;23.332;2024-01-30T04:59:15;96495.88;;;-1.03;100.00
13209;BME280;6669;42.678;23.332;2024-01-30T05:01:43;96498.50;;;-1.04;100.00
13209;BME280;6669;42.678;23.332;2024-01-30T05:04:11;96496.88;;;-1.07;100.00
13209;BME280;6669;42.678;23.332;2024-01-30T05:06:43;96497.25;;;-1.18;100.00
13209;BME280;6669;42.678;23.332;2024-01-30T05:09:11;96501.75;;;-1.24;100.00
13209;BME280;6669;42.678;23.332;2024-01-30T05:11:40;96498.31;;;-1.23;100.00
13209;BME280;6669;42.678;23.332;2024-01-30T05:14:08;96498.34;;;-1.25;100.00
13209;BME280;6669;42.678;23.332;2024-01-30T05:16:39;96507.66;;;-1.24;100.00
13209;BME280;6669;42.678;23.332;2024-01-30T05:19:07;96507.94;;;-1.32;100.00
13209;BME280;6669;42.678;23.332;2024-01-30T05:21:36;96501.75;;;-1.24;100.00
13209;BME280;6669;42.678;23.332;2024-01-30T05:24:05;96507.88;;;-1.30;100.00
13209;BME280;6669;42.678;23.332;2024-01-30T05:26:36;96507.19;;;-1.35;100.00
13209;BME280;6669;42.678;23.332;2024-01-30T05:29:04;96510.69;;;-1.38;100.00
13209;BME280;6669;42.678;23.332;2024-01-30T05:31:33;96503.84;;;-1.36;100.00
13209;BME280;6669;42.678;23.332;2024-01-30T05:34:03;96503.84;;;-1.36;100.00
13209;BME280;6669;42.678;23.332;2024-01-30T05:36:31;96503.22;;;-1.42;100.00
13209;BME280;6669;42.678;23.332;2024-01-30T05:39:00;96509.97;;;-1.41;100.00
13209;BME280;6669;42.678;23.332;2024-01-30T05:41:30;96510.19;;;-1.48;100.00
13209;BME280;6669;42.678;23.332;2024-01-30T05:43:59;96511.00;;;-1.47;100.00
13209;BME280;6669;42.678;23.332;2024-01-30T05:46:27;96504.19;;;-1.46;100.00
13209;BME280;6669;42.678;23.332;2024-01-30T05:48:55;96512.47;;;-1.40;100.00
13209;BME280;6669;42.678;23.332;2024-01-30T05:51:25;96511.75;;;-1.43;100.00
13209;BME280;6669;42.678;23.332;2024-01-30T05:53:55;96506.91;;;-1.51;100.00
13209;BME280;6669;42.678;23.332;2024-01-30T05:56:23;96502.69;;;-1.52;100.00
13209;BME280;6669;42.678;23.332;2024-01-30T05:58:51;96508.66;;;-1.53;100.00
13209;BME280;6669;42.678;23.332;2024-01-30T06:01:20;96503.00;;;-1.61;100.00
13209;BME280;6669;42.678;23.332;2024-01-30T06:03:48;96506.09;;;-1.53;100.00
13209;BME280;6669;42.678;23.332;2024-01-30T06:06:16;96507.31;;;-1.63;100.00
13209;BME280;6669;42.678;23.332;2024-01-30T06:08:46;96511.59;;;-1.66;100.00
13209;BME280;6669;42.678;23.332;2024-01-30T06:11:14;96508.84;;;-1.59;100.00
13209;BME280;6669;42.678;23.332;2024-01-30T06:13:42;96508.09;;;-1.61;100.00
13209;BME280;6669;42.678;23.332;2024-01-30T06:16:10;96511.41;;;-1.59;100.00
13209;BME280;6669;42.678;23.332;2024-01-30T06:18:41;96516.69;;;-1.64;100.00
13209;BME280;6669;42.678;23.332;2024-01-30T06:21:10;96520.09;;;-1.65;100.00
13209;BME280;6669;42.678;23.332;2024-01-30T06:23:39;96515.59;;;-1.84;100.00
13209;BME280;6669;42.678;23.332;2024-01-30T06:26:09;96525.47;;;-1.73;100.00
13209;BME280;6669;42.678;23.332;2024-01-30T06:28:37;96520.19;;;-1.68;100.00
13209;BME280;6669;42.678;23.332;2024-01-30T06:31:05;96520.25;;;-1.70;100.00
13209;BME280;6669;42.678;23.332;2024-01-30T06:33:34;96525.25;;;-1.67;100.00
13209;BME280;6669;42.678;23.332;2024-01-30T06:36:02;96521.66;;;-1.61;100.00
13209;BME280;6669;42.678;23.332;2024-01-30T06:38:30;96519.72;;;-1.53;100.00
13209;BME280;6669;42.678;23.332;2024-01-30T06:40:59;96526.56;;;-1.55;100.00
13209;BME280;6669;42.678;23.332;2024-01-30T06:43:28;96527.13;;;-1.46;100.00
13209;BME280;6669;42.678;23.332;2024-01-30T06:45:57;96521.06;;;-1.42;100.00
13209;BME280;6669;42.678;23.332;2024-01-30T06:48:26;96526.25;;;-1.45;100.00
13209;BME280;6669;42.678;23.332;2024-01-30T06:50:54;96525.03;;;-1.34;100.00
13209;BME280;6669;42.678;23.332;2024-01-30T06:53:24;96520.59;;;-1.28;100.00
13209;BME280;6669;42.678;23.332;2024-01-30T06:55:53;96532.91;;;-1.16;100.00
13209;BME280;6669;42.678;23.332;2024-01-30T06:58:21;96530.16;;;-1.10;100.00
13209;BME280;6669;42.678;23.332;2024-01-30T07:00:53;96533.56;;;-1.09;100.00
13209;BME280;6669;42.678;23.332;2024-01-30T07:03:21;96537.41;;;-0.97;100.00
13209;BME280;6669;42.678;23.332;2024-01-30T07:05:50;96535.56;;;-0.94;100.00
13209;BME280;6669;42.678;23.332;2024-01-30T07:08:18;96539.69;;;-0.90;100.00
13209;BME280;6669;42.678;23.332;2024-01-30T07:10:46;96530.25;;;-0.88;100.00
13209;BME280;6669;42.678;23.332;2024-01-30T07:13:15;96541.81;;;-0.77;100.00
13209;BME280;6669;42.678;23.332;2024-01-30T07:15:43;96533.56;;;-0.86;100.00
13209;BME280;6669;42.678;23.332;2024-01-30T07:18:13;96523.47;;;-0.89;100.00
13209;BME280;6669;42.678;23.332;2024-01-30T07:20:42;96518.31;;;-0.87;100.00
13209;BME280;6669;42.678;23.332;2024-01-30T07:23:13;96528.72;;;-0.93;100.00
13209;BME280;6669;42.678;23.332;2024-01-30T07:25:44;96534.91;;;-0.99;100.00
13209;BME280;6669;42.678;23.332;2024-01-30T07:28:15;96531.09;;;-1.12;100.00
13209;BME280;6669;42.678;23.332;2024-01-30T07:30:44;96527.53;;;-1.07;100.00
13209;BME280;6669;42.678;23.332;2024-01-30T07:33:16;96528.50;;;-1.11;100.00
13209;BME280;6669;42.678;23.332;2024-01-30T07:35:45;96527.34;;;-1.27;100.00
13209;BME280;6669;42.678;23.332;2024-01-30T07:38:13;96527.06;;;-1.43;100.00
13209;BME280;6669;42.678;23.332;2024-01-30T07:40:42;96525.78;;;-1.32;100.00
13209;BME280;6669;42.678;23.332;2024-01-30T07:43:10;96530.06;;;-1.07;100.00
13209;BME280;6669;42.678;23.332;2024-01-30T07:45:39;96523.75;;;-0.96;100.00
13209;BME280;6669;42.678;23.332;2024-01-30T07:48:08;96525.19;;;-0.89;100.00
13209;BME280;6669;42.678;23.332;2024-01-30T07:50:37;96518.75;;;-0.76;100.00
13209;BME280;6669;42.678;23.332;2024-01-30T07:53:06;96519.97;;;-0.62;100.00
13209;BME280;6669;42.678;23.332;2024-01-30T07:55:35;96521.06;;;-0.46;100.00
13209;BME280;6669;42.678;23.332;2024-01-30T07:58:03;96504.78;;;-0.43;100.00
13209;BME280;6669;42.678;23.332;2024-01-30T08:00:32;96525.72;;;-0.34;100.00
13209;BME280;6669;42.678;23.332;2024-01-30T08:03:00;96517.69;;;-0.24;100.00
13209;BME280;6669;42.678;23.332;2024-01-30T08:05:28;96515.91;;;-0.22;100.00
13209;BME280;6669;42.678;23.332;2024-01-30T08:07:58;96509.69;;;-0.15;100.00
13209;BME280;6669;42.678;23.332;2024-01-30T08:10:26;96519.97;;;0.06;100.00
13209;BME280;6669;42.678;23.332;2024-01-30T08:12:55;96510.97;;;0.18;100.00
13209;BME280;6669;42.678;23.332;2024-01-30T08:15:23;96507.34;;;0.23;100.00
13209;BME280;6669;42.678;23.332;2024-01-30T08:17:52;96512.22;;;0.29;100.00
13209;BME280;6669;42.678;23.332;2024-01-30T08:20:24;96516.41;;;0.30;100.00
13209;BME280;6669;42.678;23.332;2024-01-30T08:22:53;96518.47;;;0.22;100.00
13209;BME280;6669;42.678;23.332;2024-01-30T08:25:22;96519.19;;;0.26;100.00
13209;BME280;6669;42.678;23.332;2024-01-30T08:27:50;96510.22;;;0.15;100.00
13209;BME280;6669;42.678;23.332;2024-01-30T08:30:19;96516.09;;;0.18;100.00
13209;BME280;6669;42.678;23.332;2024-01-30T08:32:47;96508.88;;;0.27;100.00
13209;BME280;6669;42.678;23.332;2024-01-30T08:35:15;96523.97;;;0.34;100.00
13209;BME280;6669;42.678;23.332;2024-01-30T08:37:44;96518.78;;;0.35;100.00
13209;BME280;6669;42.678;23.332;2024-01-30T08:40:13;96522.94;;;0.38;100.00
13209;BME280;6669;42.678;23.332;2024-01-30T08:42:42;96528.53;;;0.47;100.00
13209;BME280;6669;42.678;23.332;2024-01-30T08:45:11;96522.16;;;0.58;99.27
13209;BME280;6669;42.678;23.332;2024-01-30T08:47:40;96520.78;;;0.70;99.23
13209;BME280;6669;42.678;23.332;2024-01-30T08:50:08;96530.53;;;0.82;99.02
13209;BME280;6669;42.678;23.332;2024-01-30T08:52:37;96533.47;;;0.93;99.59
13209;BME280;6669;42.678;23.332;2024-01-30T08:55:05;96529.88;;;0.97;98.85
13209;BME280;6669;42.678;23.332;2024-01-30T08:57:34;96526.16;;;1.05;100.00
13209;BME280;6669;42.678;23.332;2024-01-30T09:00:05;96539.50;;;1.11;99.76
13209;BME280;6669;42.678;23.332;2024-01-30T09:02:36;96536.00;;;1.14;98.36
13209;BME280;6669;42.678;23.332;2024-01-30T09:05:04;96536.59;;;1.00;97.76
13209;BME280;6669;42.678;23.332;2024-01-30T09:07:32;96540.66;;;1.25;97.51
13209;BME280;6669;42.678;23.332;2024-01-30T09:10:01;96536.09;;;1.32;97.22
13209;BME280;6669;42.678;23.332;2024-01-30T09:12:29;96534.59;;;1.46;96.98
13209;BME280;6669;42.678;23.332;2024-01-30T09:14:57;96537.00;;;1.50;95.00
13209;BME280;6669;42.678;23.332;2024-01-30T09:17:28;96529.16;;;1.72;95.77
13209;BME280;6669;42.678;23.332;2024-01-30T09:19:56;96527.34;;;1.93;96.01
13209;BME280;6669;42.678;23.332;2024-01-30T09:22:25;96528.13;;;1.95;93.11
13209;BME280;6669;42.678;23.332;2024-01-30T09:24:53;96525.34;;;2.17;90.54
13209;BME280;6669;42.678;23.332;2024-01-30T09:27:22;96512.84;;;2.28;89.05
13209;BME280;6669;42.678;23.332;2024-01-30T09:29:51;96511.47;;;2.21;90.11
13209;BME280;6669;42.678;23.332;2024-01-30T09:32:19;96500.00;;;2.11;94.62
13209;BME280;6669;42.678;23.332;2024-01-30T09:34:48;96505.38;;;2.41;94.74
13209;BME280;6669;42.678;23.332;2024-01-30T09:37:17;96506.97;;;2.44;94.99
13209;BME280;6669;42.678;23.332;2024-01-30T09:39:45;96508.75;;;2.59;91.85
13209;BME280;6669;42.678;23.332;2024-01-30T09:42:20;96508.94;;;2.74;91.14
13209;BME280;6669;42.678;23.332;2024-01-30T09:44:51;96496.81;;;2.76;90.58
13209;BME280;6669;42.678;23.332;2024-01-30T09:47:19;96497.97;;;2.70;89.33
13209;BME280;6669;42.678;23.332;2024-01-30T09:49:51;96500.25;;;2.59;89.50
13209;BME280;6669;42.678;23.332;2024-01-30T09:52:19;96501.53;;;2.50;91.87
13209;BME280;6669;42.678;23.332;2024-01-30T09:54:49;96501.22;;;2.39;93.69
13209;BME280;6669;42.678;23.332;2024-01-30T09:57:19;96502.81;;;2.41;93.13
13209;BME280;6669;42.678;23.332;2024-01-30T09:59:49;96503.53;;;2.08;95.17
13209;BME280;6669;42.678;23.332;2024-01-30T10:02:21;96499.38;;;2.93;94.86
13209;BME280;6669;42.678;23.332;2024-01-30T10:04:51;96497.75;;;3.90;90.65
13209;BME280;6669;42.678;23.332;2024-01-30T10:07:20;96487.31;;;4.68;82.78
13209;BME280;6669;42.678;23.332;2024-01-30T10:09:52;96483.84;;;5.42;77.24
13209;BME280;6669;42.678;23.332;2024-01-30T10:12:22;96490.34;;;5.76;74.92
13209;BME280;6669;42.678;23.332;2024-01-30T10:14:50;96486.03;;;6.31;71.86
13209;BME280;6669;42.678;23.332;2024-01-30T10:17:19;96480.69;;;6.60;69.41
13209;BME280;6669;42.678;23.332;2024-01-30T10:20:04;96483.22;;;6.21;68.25
13209;BME280;6669;42.678;23.332;2024-01-30T10:22:33;96483.31;;;5.36;68.70
13209;BME280;6669;42.678;23.332;2024-01-30T10:25:02;96486.28;;;4.56;70.25
13209;BME280;6669;42.678;23.332;2024-01-30T10:27:32;96486.13;;;3.83;72.20
13209;BME280;6669;42.678;23.332;2024-01-30T10:30:00;96483.00;;;3.62;75.28
13209;BME280;6669;42.678;23.332;2024-01-30T10:32:31;96487.03;;;3.82;77.44
13209;BME280;6669;42.678;23.332;2024-01-30T10:35:00;96472.63;;;4.40;76.85
13209;BME280;6669;42.678;23.332;2024-01-30T10:37:30;96479.19;;;5.19;73.92
13209;BME280;6669;42.678;23.332;2024-01-30T10:40:03;96484.84;;;5.95;70.75
13209;BME280;6669;42.678;23.332;2024-01-30T10:42:33;96481.72;;;5.90;68.08
13209;BME280;6669;42.678;23.332;2024-01-30T10:45:07;96481.81;;;6.43;66.88
13209;BME280;6669;42.678;23.332;2024-01-30T10:47:36;96476.19;;;6.24;66.09
13209;BME280;6669;42.678;23.332;2024-01-30T10:50:08;96474.19;;;6.42;66.09
13209;BME280;6669;42.678;23.332;2024-01-30T10:52:37;96473.97;;;6.58;65.24
13209;BME280;6669;42.678;23.332;2024-01-30T10:55:07;96470.28;;;6.75;65.13
13209;BME280;6669;42.678;23.332;2024-01-30T10:57:36;96457.56;;;6.84;65.21
13209;BME280;6669;42.678;23.332;2024-01-30T11:00:07;96449.25;;;6.28;64.17
13209;BME280;6669;42.678;23.332;2024-01-30T11:02:40;96466.78;;;5.68;65.31
13209;BME280;6669;42.678;23.332;2024-01-30T11:05:10;96467.25;;;5.60;66.94
13209;BME280;6669;42.678;23.332;2024-01-30T11:07:39;96454.22;;;5.76;65.72
13209;BME280;6669;42.678;23.332;2024-01-30T11:10:08;96448.84;;;6.34;66.46
13209;BME280;6669;42.678;23.332;2024-01-30T11:12:40;96449.91;;;6.70;65.86
13209;BME280;6669;42.678;23.332;2024-01-30T11:15:13;96449.66;;;6.34;64.93
13209;BME280;6669;42.678;23.332;2024-01-30T11:17:42;96444.38;;;5.68;65.64
13209;BME280;6669;42.678;23.332;2024-01-30T11:20:14;96454.34;;;5.60;67.59
13209;BME280;6669;42.678;23.332;2024-01-30T11:22:45;96446.81;;;5.84;67.00
13209;BME280;6669;42.678;23.332;2024-01-30T11:25:14;96456.84;;;5.89;67.05
13209;BME280;6669;42.678;23.332;2024-01-30T11:27:44;96445.00;;;5.72;65.76
13209;BME280;6669;42.678;23.332;2024-01-30T11:30:21;96436.91;;;6.18;66.54
13209;BME280;6669;42.678;23.332;2024-01-30T11:33:04;96441.53;;;6.53;65.41
13209;BME280;6669;42.678;23.332;2024-01-30T11:35:38;96437.63;;;6.48;64.30
13209;BME280;6669;42.678;23.332;2024-01-30T11:38:08;96437.19;;;6.54;64.93
13209;BME280;6669;42.678;23.332;2024-01-30T11:40:37;96444.53;;;6.47;64.50
13209;BME280;6669;42.678;23.332;2024-01-30T11:43:08;96433.94;;;6.25;64.76
13209;BME280;6669;42.678;23.332;2024-01-30T11:45:37;96428.91;;;5.96;65.43
13209;BME280;6669;42.678;23.332;2024-01-30T11:48:07;96434.44;;;5.89;65.15
13209;BME280;6669;42.678;23.332;2024-01-30T11:50:40;96436.00;;;6.19;64.98
13209;BME280;6669;42.678;23.332;2024-01-30T11:53:09;96421.78;;;6.40;64.36
13209;BME280;6669;42.678;23.332;2024-01-30T11:55:37;96425.84;;;6.69;62.53
13209;BME280;6669;42.678;23.332;2024-01-30T11:58:06;96425.16;;;7.17;63.10
13209;BME280;6669;42.678;23.332;2024-01-30T12:00:35;96419.66;;;6.72;62.47
13209;BME280;6669;42.678;23.332;2024-01-30T12:03:04;96414.75;;;6.29;62.87
13209;BME280;6669;42.678;23.332;2024-01-30T12:05:34;96409.88;;;6.24;64.33
13209;BME280;6669;42.678;23.332;2024-01-30T12:08:05;96411.56;;;6.77;65.00
13209;BME280;6669;42.678;23.332;2024-01-30T12:10:34;96399.38;;;7.29;63.53
13209;BME280;6669;42.678;23.332;2024-01-30T12:13:02;96385.53;;;7.54;61.86
13209;BME280;6669;42.678;23.332;2024-01-30T12:15:31;96390.69;;;8.02;61.23
13209;BME280;6669;42.678;23.332;2024-01-30T12:18:06;96379.38;;;7.92;60.29
13209;BME280;6669;42.678;23.332;2024-01-30T12:20:35;96388.00;;;8.04;60.66
13209;BME280;6669;42.678;23.332;2024-01-30T12:23:05;96390.13;;;8.10;60.32
13209;BME280;6669;42.678;23.332;2024-01-30T12:25:33;96385.72;;;8.24;60.82
13209;BME280;6669;42.678;23.332;2024-01-30T12:28:02;96383.50;;;7.95;59.92
13209;BME280;6669;42.678;23.332;2024-01-30T12:30:31;96378.03;;;7.62;61.17
13209;BME280;6669;42.678;23.332;2024-01-30T12:33:00;96379.91;;;7.36;62.38
13209;BME280;6669;42.678;23.332;2024-01-30T12:35:28;96373.09;;;8.19;60.92
13209;BME280;6669;42.678;23.332;2024-01-30T12:37:59;96379.44;;;8.50;59.95
13209;BME280;6669;42.678;23.332;2024-01-30T12:40:29;96371.69;;;8.62;60.56
13209;BME280;6669;42.678;23.332;2024-01-30T12:42:57;96374.38;;;8.83;59.30
13209;BME280;6669;42.678;23.332;2024-01-30T12:45:25;96373.09;;;8.66;59.20
13209;BME280;6669;42.678;23.332;2024-01-30T12:47:54;96365.78;;;8.82;59.90
13209;BME280;6669;42.678;23.332;2024-01-30T12:50:22;96367.53;;;8.93;58.55
13209;BME280;6669;42.678;23.332;2024-01-30T12:52:51;96372.38;;;8.87;59.18
13209;BME280;6669;42.678;23.332;2024-01-30T12:55:19;96353.50;;;8.96;58.11
13209;BME280;6669;42.678;23.332;2024-01-30T12:57:49;96358.59;;;8.97;58.05
13209;BME280;6669;42.678;23.332;2024-01-30T13:00:17;96359.06;;;8.80;57.89
13209;BME280;6669;42.678;23.332;2024-01-30T13:02:47;96357.66;;;8.87;58.33
13209;BME280;6669;42.678;23.332;2024-01-30T13:05:15;96350.81;;;8.97;57.72
13209;BME280;6669;42.678;23.332;2024-01-30T13:07:45;96346.19;;;9.12;56.79